Main page
METAR-TAF:

METAR-TAF

Airports :

Smith Field

Siloam Springs, Arkansas, United States

latitude: 36-12N, longitude: 094-29W, elevation: 984 ft

Current weather observation

The report was made 35 minutes ago, at 08:56 UTC
Wind 5 mph from the East/Southeast
Temperature 70°F
Humidity 100%
Pressure 29.97 in. Hg
Visibility: 10 miles
Clear sky

METAR: KSLG 140856Z AUTO 12004KT 10SM CLR 21/21 A2997 RMK AO2 SLP135 6//// T02110206 55018 PNO $

Time: 04:31 (09:31 UTC)


TAF: missing

Weather observations and forecasts of more than 4000 airports (METAR and TAF reports).

The available stations are represented by yellow and red dots on the map.

Hover mouse over dot to see the name of the station.

Then click to see weather observations and forecasts.

To change the map : click on the green buttons with a black cross to zoom in, on the green button with a dash to zoom out, or on the green arrows for adjacent maps.


METAR-TAF: